Time;durP1;ratioP1;P1;durP2;ratioP2;P2;SDS_P1;SDS_P2;PMS_P1;PMS_P2;Temp;Humidity;BMP_temperature;BMP_pressure;BME280_temperature;BME280_humidity;BME280_pressure;Samples;Min_cycle;Max_cycle;Signal;HPM_P1;HPM_P2
2022/07/22 00:01:03;;;;;;;13.57;11.52;;;19.60;99.90;;;;;;6153077;23;20203;-77
2022/07/22 00:03:29;;;;;;;12.98;11.68;;;19.70;99.90;;;;;;6153952;23;20599;-75
2022/07/22 00:05:55;;;;;;;12.82;11.68;;;19.60;99.90;;;;;;6153902;23;20176;-76
2022/07/22 00:08:20;;;;;;;13.13;11.95;;;19.60;99.90;;;;;;6153121;23;20160;-75
2022/07/22 00:10:46;;;;;;;13.35;12.13;;;19.60;99.90;;;;;;6153829;23;20153;-75
2022/07/22 00:13:12;;;;;;;13.25;11.88;;;19.60;99.90;;;;;;6154095;23;20555;-77
2022/07/22 00:15:37;;;;;;;12.45;11.38;;;19.60;99.90;;;;;;6154019;23;20169;-75
2022/07/22 00:18:03;;;;;;;12.32;11.32;;;19.60;99.90;;;;;;6153904;23;20153;-76
2022/07/22 00:20:29;;;;;;;12.98;11.68;;;19.60;99.90;;;;;;6153408;23;20220;-75
2022/07/22 00:22:54;;;;;;;13.25;11.80;;;19.60;99.90;;;;;;6153788;23;20165;-75
2022/07/22 00:25:20;;;;;;;14.50;10.93;;;19.60;99.90;;;;;;6154031;23;20149;-77
2022/07/22 00:27:46;;;;;;;12.32;11.30;;;19.60;99.90;;;;;;6153659;23;20229;-75
2022/07/22 00:30:12;;;;;;;12.40;11.07;;;19.50;99.90;;;;;;6153705;23;20150;-75
2022/07/22 00:32:37;;;;;;;12.90;11.68;;;19.50;99.90;;;;;;6153962;23;20169;-75
2022/07/22 00:35:03;;;;;;;12.85;11.75;;;19.50;99.90;;;;;;6153334;23;20510;-75
2022/07/22 00:37:29;;;;;;;13.60;12.48;;;19.50;99.90;;;;;;6153892;23;20203;-75
2022/07/22 00:39:55;;;;;;;12.88;11.77;;;19.50;99.90;;;;;;6153222;23;20224;-75
2022/07/22 00:42:21;;;;;;;12.30;11.30;;;19.50;99.90;;;;;;6155005;23;20165;-74
2022/07/22 00:44:46;;;;;;;13.35;12.15;;;19.50;99.90;;;;;;6155668;23;20323;-74
2022/07/22 00:47:12;;;;;;;12.25;11.13;;;19.60;99.90;;;;;;6155858;23;20180;-74
2022/07/22 00:49:38;;;;;;;12.38;11.20;;;19.60;99.90;;;;;;6155576;23;20156;-75
2022/07/22 00:52:05;;;;;;;14.35;12.10;;;19.50;99.90;;;;;;6155735;23;20180;-75
2022/07/22 00:54:31;;;;;;;11.88;10.90;;;19.60;99.90;;;;;;6155606;23;20156;-75
2022/07/22 00:56:57;;;;;;;12.52;11.30;;;19.60;99.90;;;;;;6155857;23;20156;-75
2022/07/22 00:59:23;;;;;;;11.80;10.63;;;19.60;99.90;;;;;;6154747;23;20630;-74
2022/07/22 01:01:48;;;;;;;13.05;11.95;;;19.60;99.90;;;;;;6155402;23;20568;-74
2022/07/22 01:04:14;;;;;;;13.32;11.95;;;19.70;99.90;;;;;;6129494;23;20157;-73
2022/07/22 01:06:44;;;;;;;12.60;11.60;;;19.70;99.90;;;;;;6155882;23;20185;-75
2022/07/22 01:09:11;;;;;;;13.30;11.82;;;19.80;99.90;;;;;;6155043;23;20208;-75
2022/07/22 01:11:36;;;;;;;12.45;11.35;;;19.80;99.90;;;;;;6155415;23;20626;-75
2022/07/22 01:14:03;;;;;;;13.25;11.90;;;19.70;99.90;;;;;;6129152;23;20288;-74
2022/07/22 01:16:28;;;;;;;12.82;11.68;;;19.70;99.90;;;;;;6155080;23;20493;-75
2022/07/22 01:18:54;;;;;;;12.85;11.63;;;19.70;99.90;;;;;;6155374;23;20149;-76
2022/07/22 01:21:20;;;;;;;13.00;11.70;;;19.70;99.90;;;;;;6128403;23;20177;-75
2022/07/22 01:23:46;;;;;;;13.38;11.25;;;19.70;99.90;;;;;;6155633;23;20393;-75
2022/07/22 01:26:12;;;;;;;12.90;11.73;;;19.60;99.90;;;;;;6155698;23;20318;-75
2022/07/22 01:28:38;;;;;;;13.98;12.57;;;19.50;99.90;;;;;;6155047;23;20265;-75
2022/07/22 01:31:04;;;;;;;13.30;12.00;;;19.50;99.90;;;;;;6154991;23;20164;-76
2022/07/22 01:33:30;;;;;;;13.05;11.88;;;19.30;99.90;;;;;;6155453;23;20154;-74
2022/07/22 01:35:56;;;;;;;13.02;11.93;;;19.20;99.90;;;;;;6155491;23;20248;-74
2022/07/22 01:38:22;;;;;;;13.15;11.95;;;19.20;99.90;;;;;;6155169;23;20200;-75
2022/07/22 01:40:48;;;;;;;14.07;12.65;;;19.10;99.90;;;;;;6155292;23;20149;-74
2022/07/22 01:43:17;;;;;;;13.00;11.88;;;19.10;99.90;;;;;;6155213;23;20556;-75
2022/07/22 01:45:47;;;;;;;13.98;12.75;;;19.00;99.90;;;;;;6155060;23;20154;-77
2022/07/22 01:48:13;;;;;;;12.82;11.55;;;19.00;99.90;;;;;;6155410;23;20661;-79
2022/07/22 01:50:39;;;;;;;13.57;12.32;;;18.90;99.90;;;;;;6154849;23;20236;-76
2022/07/22 01:53:05;;;;;;;13.27;12.07;;;18.90;99.90;;;;;;6155347;23;20169;-74
2022/07/22 01:55:30;;;;;;;14.18;12.75;;;18.80;99.90;;;;;;6154857;23;20206;-74
2022/07/22 01:57:56;;;;;;;13.77;12.57;;;18.90;99.90;;;;;;6155178;23;20169;-74
2022/07/22 02:00:21;;;;;;;13.05;11.85;;;18.80;99.90;;;;;;6154370;23;20595;-75
2022/07/22 02:02:47;;;;;;;14.73;13.30;;;18.80;99.90;;;;;;6155068;23;20166;-76
2022/07/22 02:05:13;;;;;;;14.00;12.60;;;18.80;99.90;;;;;;6155037;23;20154;-74
2022/07/22 02:07:39;;;;;;;13.90;12.60;;;18.80;99.90;;;;;;6155601;23;20153;-74
2022/07/22 02:10:06;;;;;;;13.98;12.68;;;18.70;99.90;;;;;;6154618;23;20617;-74
2022/07/22 02:12:31;;;;;;;13.63;12.43;;;18.70;99.90;;;;;;6154885;23;20176;-73
2022/07/22 02:14:57;;;;;;;14.20;12.88;;;18.70;99.90;;;;;;6155420;23;20173;-74
2022/07/22 02:17:23;;;;;;;14.90;13.60;;;18.60;99.90;;;;;;6155268;23;20200;-74
2022/07/22 02:19:48;;;;;;;14.15;12.75;;;18.60;99.90;;;;;;6154870;23;20204;-75
2022/07/22 02:22:14;;;;;;;15.43;14.02;;;18.50;99.90;;;;;;6154965;23;20172;-75
2022/07/22 02:24:40;;;;;;;16.88;15.38;;;18.50;99.90;;;;;;6155159;23;20149;-78
2022/07/22 02:27:05;;;;;;;13.60;12.40;;;18.50;99.90;;;;;;6154726;23;20154;-75
2022/07/22 02:29:32;;;;;;;15.43;14.00;;;18.50;99.90;;;;;;6154476;23;20204;-75
2022/07/22 02:31:58;;;;;;;16.13;14.57;;;18.50;99.90;;;;;;6155181;23;20173;-77
2022/07/22 02:34:24;;;;;;;15.90;14.40;;;18.50;99.90;;;;;;6154496;23;20630;-74
2022/07/22 02:36:50;;;;;;;14.93;13.52;;;18.40;99.90;;;;;;6154396;23;20150;-76
2022/07/22 02:39:16;;;;;;;15.63;14.13;;;18.40;99.90;;;;;;6154748;23;20163;-74
2022/07/22 02:41:41;;;;;;;13.95;12.80;;;18.40;99.90;;;;;;6154258;23;20169;-75
2022/07/22 02:44:07;;;;;;;15.88;14.25;;;18.30;99.90;;;;;;6127950;23;20207;-75
2022/07/22 02:46:33;;;;;;;15.63;14.13;;;18.30;99.90;;;;;;6154910;23;20164;-81
2022/07/22 02:48:58;;;;;;;15.95;14.45;;;18.20;99.90;;;;;;6159172;23;20153;-79
2022/07/22 02:51:24;;;;;;;15.77;14.20;;;18.20;99.90;;;;;;6131538;23;20192;-75
2022/07/22 02:53:50;;;;;;;15.23;13.90;;;18.20;99.90;;;;;;6154710;23;20175;-75
2022/07/22 02:56:16;;;;;;;17.95;15.52;;;18.20;99.90;;;;;;6154451;23;20204;-75
2022/07/22 02:58:42;;;;;;;14.88;13.68;;;18.10;99.90;;;;;;6154778;23;20188;-73
2022/07/22 03:01:08;;;;;;;14.68;13.38;;;18.10;99.90;;;;;;6154086;23;20154;-72
2022/07/22 03:03:34;;;;;;;16.17;14.32;;;18.10;99.90;;;;;;6153990;23;20236;-72
2022/07/22 03:06:00;;;;;;;16.30;14.77;;;18.10;99.90;;;;;;6154039;23;20199;-72
2022/07/22 03:08:25;;;;;;;14.63;13.35;;;18.00;99.90;;;;;;6154611;23;20153;-75
2022/07/22 03:10:52;;;;;;;16.08;14.60;;;17.90;99.90;;;;;;6154800;23;20153;-72
2022/07/22 03:13:17;;;;;;;16.52;15.05;;;18.00;99.90;;;;;;6154628;23;20239;-74
2022/07/22 03:15:43;;;;;;;16.52;14.82;;;17.90;99.90;;;;;;6154568;23;20642;-72
2022/07/22 03:18:09;;;;;;;17.02;15.35;;;17.80;99.90;;;;;;6154680;23;20481;-73
2022/07/22 03:20:35;;;;;;;16.77;15.27;;;17.80;99.90;;;;;;6153968;23;20149;-74
2022/07/22 03:23:00;;;;;;;17.15;15.38;;;17.70;99.90;;;;;;6154149;23;20259;-72
2022/07/22 03:25:26;;;;;;;16.23;14.73;;;17.70;99.90;;;;;;6154686;23;20157;-73
2022/07/22 03:27:52;;;;;;;17.85;16.10;;;17.70;99.90;;;;;;6154697;23;20154;-72
2022/07/22 03:30:17;;;;;;;16.80;15.20;;;17.70;99.90;;;;;;6154224;23;20526;-72
2022/07/22 03:32:44;;;;;;;17.70;16.10;;;17.70;99.90;;;;;;6154131;23;20212;-73
2022/07/22 03:35:14;;;;;;;17.38;15.68;;;17.70;99.90;;;;;;6154545;23;20204;-72
2022/07/22 03:37:40;;;;;;;16.50;15.10;;;17.70;99.90;;;;;;6154625;23;20149;-72
2022/07/22 03:40:06;;;;;;;18.42;16.63;;;17.70;99.90;;;;;;6153470;23;20176;-72
2022/07/22 03:42:32;;;;;;;17.52;15.90;;;17.70;99.90;;;;;;6154113;23;20173;-72
2022/07/22 03:44:57;;;;;;;18.25;16.42;;;17.70;99.90;;;;;;6154513;23;20154;-73
2022/07/22 03:47:23;;;;;;;17.80;16.10;;;17.70;99.90;;;;;;6154946;23;20153;-72
2022/07/22 03:49:50;;;;;;;18.38;16.67;;;17.60;99.90;;;;;;6154132;23;20494;-73
2022/07/22 03:52:16;;;;;;;18.95;17.15;;;17.70;99.90;;;;;;6154306;23;20184;-73
2022/07/22 03:54:43;;;;;;;18.27;16.48;;;17.70;99.90;;;;;;6151884;23;20149;-78
2022/07/22 03:57:09;;;;;;;18.63;16.23;;;17.70;99.90;;;;;;6153562;23;20587;-73
2022/07/22 03:59:35;;;;;;;17.33;15.73;;;17.80;99.90;;;;;;6153968;23;20149;-72
2022/07/22 04:02:01;;;;;;;17.75;16.20;;;17.80;99.90;;;;;;6154006;23;20559;-72
2022/07/22 04:04:26;;;;;;;17.90;16.10;;;17.80;99.90;;;;;;6154055;23;20479;-72
2022/07/22 04:06:52;;;;;;;18.33;16.40;;;17.80;99.90;;;;;;6154505;23;20150;-72
2022/07/22 04:09:18;;;;;;;17.33;15.35;;;17.80;99.90;;;;;;6153165;23;20220;-72
2022/07/22 04:11:44;;;;;;;18.65;16.63;;;17.90;99.90;;;;;;6153786;23;20652;-73
2022/07/22 04:14:09;;;;;;;19.45;15.95;;;17.90;99.90;;;;;;6153776;23;20156;-74
2022/07/22 04:16:35;;;;;;;17.70;15.93;;;17.90;99.90;;;;;;6155128;23;20541;-71
2022/07/22 04:19:02;;;;;;;17.20;15.60;;;18.00;99.90;;;;;;6155608;23;20149;-79
2022/07/22 04:21:28;;;;;;;18.83;16.98;;;18.10;99.90;;;;;;6159712;23;20664;-80
2022/07/22 04:23:54;;;;;;;18.70;17.00;;;18.10;99.90;;;;;;6138426;23;20161;-80
2022/07/22 04:26:19;;;;;;;17.10;15.32;;;18.20;99.90;;;;;;6162929;23;20157;-80
2022/07/22 04:28:45;;;;;;;16.55;14.95;;;18.20;99.90;;;;;;6140219;23;20157;-81
2022/07/22 04:31:11;;;;;;;19.20;17.17;;;18.30;99.90;;;;;;6167013;23;20144;-80
2022/07/22 04:33:37;;;;;;;16.70;15.32;;;18.30;99.90;;;;;;6164322;23;20490;-79
2022/07/22 04:36:03;;;;;;;19.38;17.38;;;18.40;99.90;;;;;;6136719;23;20657;-79
2022/07/22 04:38:29;;;;;;;18.52;16.85;;;18.50;99.90;;;;;;6160755;23;20200;-78
2022/07/22 04:40:54;;;;;;;17.35;15.73;;;18.50;99.90;;;;;;6163116;23;20145;-80
2022/07/22 04:43:20;;;;;;;18.10;16.65;;;18.60;99.90;;;;;;6160724;23;20154;-80
2022/07/22 04:45:45;;;;;;;18.27;16.77;;;18.70;99.90;;;;;;6139034;23;20157;-81
2022/07/22 04:48:11;;;;;;;15.85;14.35;;;18.80;99.90;;;;;;6167839;23;20184;-81
2022/07/22 04:50:37;;;;;;;17.00;15.10;;;18.80;99.90;;;;;;6140783;23;20159;-81
2022/07/22 04:53:03;;;;;;;17.38;15.77;;;18.90;99.90;;;;;;6139336;23;20694;-79
2022/07/22 04:55:28;;;;;;;17.77;16.17;;;18.90;99.90;;;;;;6162347;23;20177;-79
2022/07/22 04:57:54;;;;;;;17.38;15.68;;;18.90;99.90;;;;;;6161811;23;20181;-79
2022/07/22 05:00:20;;;;;;;18.33;15.63;;;19.00;99.90;;;;;;6160639;23;20252;-80
2022/07/22 05:02:46;;;;;;;16.42;14.98;;;19.00;99.90;;;;;;6134281;23;20169;-78
2022/07/22 05:05:11;;;;;;;18.38;16.52;;;19.10;99.90;;;;;;6161440;23;20228;-78
2022/07/22 05:07:37;;;;;;;16.10;14.70;;;19.20;99.90;;;;;;6158771;23;20201;-78
2022/07/22 05:10:03;;;;;;;19.02;17.15;;;19.20;99.90;;;;;;6154828;23;20495;-77
2022/07/22 05:12:28;;;;;;;21.85;16.70;;;19.30;99.90;;;;;;6155998;23;20173;-77
2022/07/22 05:14:54;;;;;;;16.30;14.75;;;19.40;99.90;;;;;;6156000;23;20507;-78
2022/07/22 05:17:20;;;;;;;17.02;15.48;;;19.40;99.90;;;;;;6155713;23;20145;-78
2022/07/22 05:19:45;;;;;;;18.52;16.83;;;19.50;99.90;;;;;;6154453;23;20203;-78
2022/07/22 05:22:11;;;;;;;18.10;16.33;;;19.60;99.90;;;;;;6155439;23;20243;-78
2022/07/22 05:24:36;;;;;;;18.05;16.45;;;19.60;99.90;;;;;;6160365;23;20150;-79
2022/07/22 05:27:02;;;;;;;18.75;16.92;;;19.70;99.90;;;;;;6133787;23;20180;-79
2022/07/22 05:29:28;;;;;;;17.40;15.80;;;19.70;99.90;;;;;;6138789;23;20160;-80
2022/07/22 05:31:54;;;;;;;18.75;17.00;;;19.80;99.90;;;;;;6160726;23;20183;-80
2022/07/22 05:34:19;;;;;;;18.90;17.15;;;19.90;99.90;;;;;;6165724;23;20283;-80
2022/07/22 05:36:45;;;;;;;17.38;15.65;;;20.00;99.90;;;;;;6161418;23;20173;-79
2022/07/22 05:39:10;;;;;;;17.25;15.45;;;20.10;99.90;;;;;;6154933;23;20153;-79
2022/07/22 05:41:37;;;;;;;17.08;15.43;;;20.10;99.90;;;;;;6159038;23;20204;-79
2022/07/22 05:44:03;;;;;;;17.73;16.23;;;20.30;99.90;;;;;;6162444;23;20149;-80
2022/07/22 05:46:29;;;;;;;19.92;18.20;;;20.30;99.90;;;;;;6160407;23;20149;-80
2022/07/22 05:48:54;;;;;;;18.25;16.58;;;20.40;99.90;;;;;;6162470;23;20153;-80
2022/07/22 05:51:21;;;;;;;19.05;17.35;;;20.50;99.90;;;;;;6164485;23;20170;-80
2022/07/22 05:53:46;;;;;;;17.58;15.90;;;20.50;99.90;;;;;;6139751;23;20179;-79
2022/07/22 05:56:13;;;;;;;18.77;17.20;;;20.60;99.90;;;;;;6155175;23;20252;-75
2022/07/22 05:58:40;;;;;;;19.30;17.58;;;20.60;99.90;;;;;;6154434;23;20168;-74
2022/07/22 06:01:06;;;;;;;18.58;16.77;;;20.70;99.90;;;;;;6154194;23;20153;-74
2022/07/22 06:03:31;;;;;;;17.80;16.30;;;20.90;99.90;;;;;;6153532;23;20486;-74
2022/07/22 06:05:57;;;;;;;19.38;17.63;;;20.90;99.90;;;;;;6154639;23;20141;-75
2022/07/22 06:08:23;;;;;;;20.88;18.80;;;21.00;99.90;;;;;;6154248;23;20181;-76
2022/07/22 06:10:48;;;;;;;17.67;16.08;;;21.10;99.90;;;;;;6153815;23;20153;-75
2022/07/22 06:13:14;;;;;;;17.73;16.13;;;21.20;99.90;;;;;;6153511;23;20208;-75
2022/07/22 06:15:40;;;;;;;20.67;18.70;;;21.30;99.90;;;;;;6154616;23;20193;-75
2022/07/22 06:18:06;;;;;;;22.35;20.17;;;21.30;99.90;;;;;;6153622;23;20571;-74
2022/07/22 06:20:31;;;;;;;20.13;18.27;;;21.30;99.90;;;;;;6152498;23;20149;-75
2022/07/22 06:22:57;;;;;;;19.83;17.92;;;21.30;99.90;;;;;;6153870;23;20170;-76
2022/07/22 06:25:23;;;;;;;20.33;18.48;;;21.40;99.90;;;;;;6154250;23;20192;-75
2022/07/22 06:27:48;;;;;;;20.02;18.17;;;21.40;99.90;;;;;;6154553;23;20236;-76
2022/07/22 06:30:14;;;;;;;20.58;18.77;;;21.50;99.90;;;;;;6152998;23;20157;-75
2022/07/22 06:32:40;;;;;;;21.65;19.48;;;21.50;99.90;;;;;;6152930;23;20173;-75
2022/07/22 06:35:06;;;;;;;21.05;18.83;;;21.60;99.90;;;;;;6153963;23;20188;-76
2022/07/22 06:37:31;;;;;;;21.17;19.08;;;21.70;99.90;;;;;;6154007;23;20181;-76
2022/07/22 06:39:57;;;;;;;20.63;18.63;;;21.80;99.90;;;;;;6152787;23;20193;-76
2022/07/22 06:42:22;;;;;;;20.40;18.50;;;21.90;99.90;;;;;;6153182;23;20184;-76
2022/07/22 06:44:48;;;;;;;19.60;18.00;;;22.00;99.90;;;;;;6153933;23;20185;-75
2022/07/22 06:47:14;;;;;;;20.40;18.50;;;22.10;99.90;;;;;;6153643;23;20173;-75
2022/07/22 06:49:40;;;;;;;21.85;19.95;;;22.10;99.90;;;;;;6153397;23;20488;-75
2022/07/22 06:52:05;;;;;;;19.73;17.92;;;22.10;99.90;;;;;;6153944;23;20301;-76
2022/07/22 06:54:31;;;;;;;22.20;20.13;;;22.20;99.90;;;;;;6153175;23;20613;-76
2022/07/22 06:56:57;;;;;;;19.27;17.63;;;22.30;99.90;;;;;;6152876;23;20586;-75
2022/07/22 06:59:23;;;;;;;20.95;18.92;;;22.40;99.90;;;;;;6153722;23;20681;-76
2022/07/22 07:01:50;;;;;;;20.23;18.25;;;22.50;99.90;;;;;;6152849;23;20169;-75
2022/07/22 07:04:16;;;;;;;20.48;18.48;;;22.70;99.90;;;;;;6154283;23;20224;-75
2022/07/22 07:06:42;;;;;;;16.45;15.18;;;22.70;99.90;;;;;;6154126;23;20523;-77
2022/07/22 07:09:07;;;;;;;19.73;18.10;;;22.90;99.90;;;;;;6153982;23;20149;-77
2022/07/22 07:11:34;;;;;;;20.65;18.30;;;23.00;99.90;;;;;;6154098;23;20231;-77
2022/07/22 07:14:00;;;;;;;20.40;18.38;;;23.10;99.90;;;;;;6154067;23;20149;-77
2022/07/22 07:16:26;;;;;;;21.75;19.52;;;23.20;99.90;;;;;;6154559;23;20177;-78
2022/07/22 07:18:51;;;;;;;17.25;15.75;;;23.30;99.90;;;;;;6153893;23;20224;-76
2022/07/22 07:21:17;;;;;;;19.63;17.85;;;23.40;99.90;;;;;;6153154;23;20180;-75
2022/07/22 07:23:43;;;;;;;18.52;16.73;;;23.50;99.90;;;;;;6154007;23;20149;-77
2022/07/22 07:26:09;;;;;;;19.48;17.88;;;23.70;99.90;;;;;;6153930;23;20240;-75
2022/07/22 07:28:34;;;;;;;18.77;16.92;;;23.80;99.90;;;;;;6153469;23;20153;-77
2022/07/22 07:31:01;;;;;;;17.65;16.05;;;23.80;99.90;;;;;;6152755;23;20674;-78
2022/07/22 07:33:26;;;;;;;19.00;17.33;;;23.90;99.90;;;;;;6153751;23;20153;-75
2022/07/22 07:35:52;;;;;;;20.63;18.42;;;24.00;99.90;;;;;;6151616;23;20238;-77
2022/07/22 07:38:18;;;;;;;15.88;14.50;;;24.10;99.90;;;;;;6152436;23;20224;-74
2022/07/22 07:40:43;;;;;;;18.88;17.27;;;24.20;99.90;;;;;;6149669;23;20158;-76
2022/07/22 07:43:09;;;;;;;19.48;17.58;;;24.40;99.90;;;;;;6127151;23;20248;-73
2022/07/22 07:45:36;;;;;;;20.63;18.42;;;24.40;99.90;;;;;;6153896;23;20180;-73
2022/07/22 07:48:03;;;;;;;19.65;17.80;;;24.40;99.90;;;;;;6153320;23;20149;-73
2022/07/22 07:50:29;;;;;;;19.65;18.05;;;24.50;99.90;;;;;;6151866;23;20149;-73
2022/07/22 07:52:55;;;;;;;15.00;13.60;;;24.50;99.90;;;;;;6153465;23;20256;-74
2022/07/22 07:55:21;;;;;;;18.02;16.23;;;24.60;99.90;;;;;;6153550;23;20204;-73
2022/07/22 07:57:48;;;;;;;17.20;15.80;;;24.70;99.90;;;;;;6153100;23;20165;-75
2022/07/22 08:00:16;;;;;;;18.05;16.35;;;24.90;99.90;;;;;;6153041;23;20156;-74
2022/07/22 08:02:41;;;;;;;16.70;15.10;;;25.00;99.90;;;;;;6152879;23;20170;-73
2022/07/22 08:05:08;;;;;;;16.70;15.30;;;25.00;99.90;;;;;;6126651;23;20625;-74
2022/07/22 08:07:34;;;;;;;16.60;15.07;;;25.20;99.90;;;;;;6153251;23;20240;-72
2022/07/22 08:10:00;;;;;;;16.10;14.70;;;25.30;99.90;;;;;;6152722;23;20251;-72
2022/07/22 08:12:26;;;;;;;15.13;13.82;;;25.40;99.90;;;;;;6152546;23;20634;-73
2022/07/22 08:14:52;;;;;;;15.65;14.25;;;25.60;99.90;;;;;;6153514;23;20184;-73
2022/07/22 08:17:17;;;;;;;14.52;13.32;;;25.70;99.90;;;;;;6152979;23;20149;-69
2022/07/22 08:19:43;;;;;;;14.35;12.90;;;25.80;99.90;;;;;;6152730;23;20146;-69
2022/07/22 08:22:09;;;;;;;13.80;12.55;;;25.80;99.90;;;;;;6152573;23;20216;-69
2022/07/22 08:24:34;;;;;;;12.05;11.13;;;26.00;99.90;;;;;;6151870;23;20145;-69
2022/07/22 08:27:01;;;;;;;14.15;12.75;;;26.10;99.90;;;;;;6152426;23;20484;-69
2022/07/22 08:29:27;;;;;;;10.52;9.73;;;26.10;99.90;;;;;;6149985;23;20150;-69
2022/07/22 08:31:53;;;;;;;12.15;11.05;;;26.20;99.90;;;;;;6152268;23;20201;-69
2022/07/22 08:34:18;;;;;;;12.27;11.07;;;26.30;99.90;;;;;;6151793;23;20149;-69
2022/07/22 08:36:44;;;;;;;12.30;11.32;;;26.40;99.90;;;;;;6152965;23;20196;-69
2022/07/22 08:39:09;;;;;;;11.10;10.25;;;26.50;99.90;;;;;;6153089;23;20150;-69
2022/07/22 08:41:38;;;;;;;13.13;11.82;;;26.60;99.90;;;;;;6153263;23;20177;-69
2022/07/22 08:44:06;;;;;;;9.95;9.02;;;26.60;99.90;;;;;;6153509;23;20156;-69
2022/07/22 08:46:32;;;;;;;11.95;9.50;;;26.70;99.90;;;;;;6153475;23;20159;-68
2022/07/22 08:49:00;;;;;;;10.75;9.65;;;26.80;99.90;;;;;;6152894;23;20200;-68
2022/07/22 08:51:26;;;;;;;10.30;9.30;;;26.90;99.90;;;;;;6151500;23;20201;-70
2022/07/22 08:53:52;;;;;;;10.18;9.38;;;27.10;99.90;;;;;;6153048;23;20569;-73
2022/07/22 08:56:18;;;;;;;9.98;9.05;;;27.30;99.90;;;;;;6153482;23;20205;-71
2022/07/22 08:58:44;;;;;;;8.98;8.00;;;27.30;99.90;;;;;;6153073;23;20181;-71
2022/07/22 09:01:18;;;;;;;8.57;7.97;;;27.40;99.90;;;;;;6126055;23;20562;-71
2022/07/22 09:03:49;;;;;;;7.78;7.20;;;27.60;99.90;;;;;;6154805;23;20130;-71
2022/07/22 09:06:16;;;;;;;8.18;7.55;;;27.60;99.90;;;;;;6155149;23;20154;-71
2022/07/22 09:08:59;;;;;;;7.75;7.15;;;27.60;99.30;;;;;;6154589;23;20208;-71
2022/07/22 09:11:28;;;;;;;8.23;7.43;;;27.80;99.90;;;;;;6155114;23;20177;-71
2022/07/22 09:13:55;;;;;;;8.00;7.30;;;27.90;99.10;;;;;;6154821;23;20630;-71
2022/07/22 09:16:45;;;;;;;8.35;7.55;;;28.10;98.30;;;;;;6155091;23;20653;-71
2022/07/22 09:19:11;;;;;;;8.25;7.55;;;28.30;95.40;;;;;;6154693;23;20134;-71
2022/07/22 09:21:42;;;;;;;8.75;7.97;;;28.40;94.40;;;;;;6155124;23;20169;-71
2022/07/22 09:24:08;;;;;;;7.75;7.20;;;28.50;94.20;;;;;;6155103;23;20458;-75
2022/07/22 09:26:37;;;;;;;9.10;8.40;;;28.60;94.10;;;;;;6154780;23;20212;-73
2022/07/22 09:29:04;;;;;;;10.52;9.50;;;28.80;95.90;;;;;;6154804;23;20204;-73
2022/07/22 09:31:37;;;;;;;9.32;8.63;;;29.00;96.60;;;;;;6128374;23;20512;-73
2022/07/22 09:34:04;;;;;;;9.70;8.68;;;29.10;95.50;;;;;;6154625;23;20239;-73
2022/07/22 09:36:30;;;;;;;8.75;7.97;;;29.40;94.90;;;;;;6154947;23;20185;-73
2022/07/22 09:38:57;;;;;;;9.25;8.52;;;30.50;94.10;;;;;;6154654;23;20153;-73
2022/07/22 09:41:23;;;;;;;8.90;8.10;;;32.50;88.90;;;;;;6154763;23;20640;-73
2022/07/22 09:43:52;;;;;;;7.68;7.18;;;34.50;77.60;;;;;;6154421;23;20145;-74
2022/07/22 09:46:34;;;;;;;8.18;7.57;;;36.30;69.70;;;;;;6153632;23;20227;-73
2022/07/22 09:49:00;;;;;;;8.27;7.50;;;37.90;63.20;;;;;;6153703;23;20195;-73
2022/07/22 09:51:25;;;;;;;7.70;7.10;;;39.50;56.00;;;;;;6154834;23;20688;-74
2022/07/22 09:53:52;;;;;;;7.70;7.05;;;40.30;53.00;;;;;;6154160;23;20157;-74
2022/07/22 09:56:18;;;;;;;8.25;7.63;;;40.20;52.60;;;;;;6153094;23;20211;-74
2022/07/22 09:58:43;;;;;;;7.85;7.07;;;40.70;50.60;;;;;;6154668;23;20502;-72
2022/07/22 10:01:10;;;;;;;7.00;6.60;;;41.10;50.10;;;;;;6153042;23;20232;-72
2022/07/22 10:03:36;;;;;;;7.32;6.68;;;41.90;49.90;;;;;;6153301;23;20145;-72
2022/07/22 10:06:03;;;;;;;8.23;7.63;;;42.00;48.20;;;;;;6154695;23;20153;-73
2022/07/22 10:08:31;;;;;;;7.10;6.60;;;42.00;47.10;;;;;;6152357;23;20160;-73
2022/07/22 10:11:00;;;;;;;6.35;5.80;;;41.90;47.10;;;;;;6154302;23;20184;-72
2022/07/22 10:13:26;;;;;;;7.72;7.07;;;42.40;46.80;;;;;;6154192;23;20722;-72
2022/07/22 10:15:53;;;;;;;6.72;6.25;;;42.70;46.20;;;;;;6154675;23;20188;-74
2022/07/22 10:18:19;;;;;;;6.97;6.30;;;42.90;45.60;;;;;;6154450;23;20176;-73
2022/07/22 10:20:45;;;;;;;6.88;6.28;;;43.50;45.10;;;;;;6128030;23;20495;-73
2022/07/22 10:23:13;;;;;;;6.70;6.22;;;43.80;45.80;;;;;;6154710;23;20208;-73
2022/07/22 10:25:49;;;;;;;7.10;6.50;;;44.30;44.30;;;;;;6154774;23;20196;-73
2022/07/22 10:28:21;;;;;;;6.40;5.90;;;44.30;44.90;;;;;;6154292;23;20140;-73
2022/07/22 10:30:47;;;;;;;6.30;5.78;;;44.80;43.50;;;;;;6154019;23;20227;-73
2022/07/22 10:33:19;;;;;;;6.22;5.70;;;44.80;42.40;;;;;;6128398;23;20219;-73
2022/07/22 10:35:51;;;;;;;5.72;5.32;;;45.00;42.60;;;;;;6153959;23;20233;-73
2022/07/22 10:38:19;;;;;;;6.80;6.30;;;45.10;41.50;;;;;;6153215;23;20204;-73
2022/07/22 10:41:05;;;;;;;6.07;5.63;;;44.90;41.80;;;;;;6154375;23;20612;-72
2022/07/22 10:43:43;;;;;;;6.55;5.95;;;45.80;41.10;;;;;;6154662;23;20215;-72
2022/07/22 10:46:09;;;;;;;6.95;6.22;;;46.30;40.40;;;;;;6151955;23;20157;-73
2022/07/22 10:48:37;;;;;;;6.25;5.85;;;46.30;40.40;;;;;;6153874;23;20156;-73
2022/07/22 10:51:13;;;;;;;6.25;5.75;;;46.60;40.70;;;;;;6153948;23;20159;-73
2022/07/22 10:54:14;;;;;;;9.00;6.00;;;46.10;40.10;;;;;;6154521;23;20324;-73
2022/07/22 10:56:42;;;;;;;6.30;5.88;;;45.80;40.70;;;;;;6062424;23;20190;-74
2022/07/22 10:59:12;;;;;;;6.90;6.47;;;46.10;40.30;;;;;;6136122;23;20555;-72
2022/07/22 11:01:44;;;;;;;5.90;5.40;;;45.70;40.00;;;;;;6153634;23;20189;-71
2022/07/22 11:04:25;;;;;;;6.63;5.68;;;45.60;40.70;;;;;;6151385;23;20158;-69
2022/07/22 11:06:52;;;;;;;6.03;5.65;;;46.80;39.40;;;;;;6153501;23;20156;-70
2022/07/22 11:09:21;;;;;;;6.07;5.65;;;48.10;37.80;;;;;;6153013;23;20207;-69
2022/07/22 11:11:55;;;;;;;5.85;5.35;;;46.40;38.60;;;;;;6153459;23;20248;-72
2022/07/22 11:14:31;;;;;;;5.47;5.18;;;46.70;38.10;;;;;;6151899;23;20159;-72
2022/07/22 11:17:06;;;;;;;6.05;5.45;;;47.00;38.20;;;;;;6153168;23;20251;-71
2022/07/22 11:19:32;;;;;;;6.95;5.50;;;47.70;37.40;;;;;;6153400;23;20160;-71
2022/07/22 11:22:07;;;;;;;5.75;5.25;;;48.30;36.70;;;;;;6152884;23;20203;-71
2022/07/22 11:24:33;;;;;;;6.00;5.50;;;48.30;36.80;;;;;;6151959;23;20598;-71
2022/07/22 11:27:00;;;;;;;5.47;5.03;;;48.20;37.20;;;;;;6152860;23;20641;-71
2022/07/22 11:29:28;;;;;;;6.25;5.32;;;48.80;36.30;;;;;;6153671;23;20148;-71
2022/07/22 11:31:56;;;;;;;5.18;4.78;;;48.60;35.70;;;;;;6154549;23;20207;-71
2022/07/22 11:34:23;;;;;;;5.82;5.43;;;48.00;36.40;;;;;;6154427;23;20144;-72
2022/07/22 11:36:49;;;;;;;5.55;5.15;;;47.90;36.20;;;;;;6152763;23;20472;-72
2022/07/22 11:39:19;;;;;;;6.80;5.50;;;47.90;36.30;;;;;;6153799;23;20178;-71
2022/07/22 11:41:44;;;;;;;6.50;5.43;;;46.50;37.10;;;;;;6153806;23;20195;-71
2022/07/22 11:44:10;;;;;;;6.20;5.80;;;44.60;38.80;;;;;;6153821;23;20461;-72
2022/07/22 11:46:41;;;;;;;5.85;5.45;;;42.60;40.90;;;;;;6127638;23;20141;-71
2022/07/22 11:49:07;;;;;;;5.88;5.47;;;40.90;44.40;;;;;;6153975;23;20575;-71
2022/07/22 11:51:35;;;;;;;5.80;5.30;;;39.50;45.10;;;;;;6154309;23;20180;-70
2022/07/22 11:54:02;;;;;;;5.78;5.28;;;39.30;45.20;;;;;;6127093;23;20614;-72
2022/07/22 11:56:28;;;;;;;6.75;6.20;;;39.70;45.00;;;;;;6152286;23;20256;-70
2022/07/22 11:58:55;;;;;;;10.60;6.30;;;39.40;44.40;;;;;;6151886;23;20168;-71
2022/07/22 12:01:28;;;;;;;5.95;5.57;;;38.50;46.00;;;;;;6152529;23;20247;-71
2022/07/22 12:03:58;;;;;;;6.53;6.13;;;37.90;47.50;;;;;;6124341;23;20153;-70
2022/07/22 12:06:26;;;;;;;6.10;5.80;;;37.20;48.60;;;;;;6152797;23;20606;-70
2022/07/22 12:09:02;;;;;;;7.07;6.43;;;36.60;49.40;;;;;;6152303;23;20156;-71
2022/07/22 12:11:28;;;;;;;6.72;6.22;;;37.10;48.20;;;;;;6153555;23;20198;-70
2022/07/22 12:13:53;;;;;;;7.03;6.53;;;37.60;48.30;;;;;;6153093;23;20637;-71
2022/07/22 12:16:20;;;;;;;7.00;6.50;;;37.60;47.20;;;;;;6153195;23;20173;-71
2022/07/22 12:18:52;;;;;;;6.70;6.20;;;37.50;47.90;;;;;;6153227;23;20149;-71
2022/07/22 12:21:18;;;;;;;7.00;6.43;;;37.30;47.20;;;;;;6153469;23;20586;-71
2022/07/22 12:23:52;;;;;;;6.70;6.30;;;37.10;48.50;;;;;;6153708;23;20148;-70
2022/07/22 12:26:18;;;;;;;6.82;6.38;;;36.70;48.40;;;;;;6153500;23;20497;-70
2022/07/22 12:28:43;;;;;;;6.38;5.88;;;36.20;48.80;;;;;;6151646;23;20148;-71
2022/07/22 12:31:09;;;;;;;6.85;6.25;;;36.10;49.10;;;;;;6151173;23;20562;-71